sensor_id;sensor_type;location;lat;lon;timestamp;P1;durP1;ratioP1;P2;durP2;ratioP2
29214;SDS011;16252;49.816;7.964;2023-08-20T00:00:05;6.32;;;4.88;;
29214;SDS011;16252;49.816;7.964;2023-08-20T00:02:33;6.10;;;4.80;;
29214;SDS011;16252;49.816;7.964;2023-08-20T00:05:00;5.13;;;4.53;;
29214;SDS011;16252;49.816;7.964;2023-08-20T00:07:28;10.10;;;5.57;;
29214;SDS011;16252;49.816;7.964;2023-08-20T00:09:54;6.20;;;5.15;;
29214;SDS011;16252;49.816;7.964;2023-08-20T00:12:19;5.40;;;4.88;;
29214;SDS011;16252;49.816;7.964;2023-08-20T00:14:55;6.57;;;5.05;;
29214;SDS011;16252;49.816;7.964;2023-08-20T00:17:31;4.90;;;4.30;;
29214;SDS011;16252;49.816;7.964;2023-08-20T00:20:02;5.40;;;4.90;;
29214;SDS011;16252;49.816;7.964;2023-08-20T00:22:34;5.57;;;4.75;;
29214;SDS011;16252;49.816;7.964;2023-08-20T00:25:00;4.97;;;4.53;;
29214;SDS011;16252;49.816;7.964;2023-08-20T00:27:25;5.60;;;4.68;;
29214;SDS011;16252;49.816;7.964;2023-08-20T00:29:51;5.35;;;4.85;;
29214;SDS011;16252;49.816;7.964;2023-08-20T00:32:16;7.13;;;4.25;;
29214;SDS011;16252;49.816;7.964;2023-08-20T00:34:42;4.85;;;4.45;;
29214;SDS011;16252;49.816;7.964;2023-08-20T00:37:07;6.10;;;4.65;;
29214;SDS011;16252;49.816;7.964;2023-08-20T00:39:33;7.07;;;4.65;;
29214;SDS011;16252;49.816;7.964;2023-08-20T00:41:58;6.00;;;4.63;;
29214;SDS011;16252;49.816;7.964;2023-08-20T00:44:23;6.03;;;4.95;;
29214;SDS011;16252;49.816;7.964;2023-08-20T00:46:49;5.00;;;4.50;;
29214;SDS011;16252;49.816;7.964;2023-08-20T00:49:15;4.85;;;4.32;;
29214;SDS011;16252;49.816;7.964;2023-08-20T00:51:41;5.53;;;4.75;;
29214;SDS011;16252;49.816;7.964;2023-08-20T00:54:07;4.97;;;4.47;;
29214;SDS011;16252;49.816;7.964;2023-08-20T00:56:32;5.72;;;4.43;;
29214;SDS011;16252;49.816;7.964;2023-08-20T00:58:58;6.80;;;4.78;;
29214;SDS011;16252;49.816;7.964;2023-08-20T01:01:23;5.85;;;4.60;;
29214;SDS011;16252;49.816;7.964;2023-08-20T01:03:49;4.68;;;4.28;;
29214;SDS011;16252;49.816;7.964;2023-08-20T01:09:01;4.75;;;4.32;;
29214;SDS011;16252;49.816;7.964;2023-08-20T01:11:37;5.88;;;4.32;;
29214;SDS011;16252;49.816;7.964;2023-08-20T01:14:15;5.22;;;4.68;;
29214;SDS011;16252;49.816;7.964;2023-08-20T01:16:41;4.88;;;4.38;;
29214;SDS011;16252;49.816;7.964;2023-08-20T01:19:07;5.07;;;4.55;;
29214;SDS011;16252;49.816;7.964;2023-08-20T01:21:39;5.15;;;4.65;;
29214;SDS011;16252;49.816;7.964;2023-08-20T01:24:16;6.50;;;4.70;;
29214;SDS011;16252;49.816;7.964;2023-08-20T01:27:08;5.43;;;4.30;;
29214;SDS011;16252;49.816;7.964;2023-08-20T01:29:44;5.28;;;4.45;;
29214;SDS011;16252;49.816;7.964;2023-08-20T01:32:10;5.78;;;4.28;;
29214;SDS011;16252;49.816;7.964;2023-08-20T01:34:37;6.10;;;4.85;;
29214;SDS011;16252;49.816;7.964;2023-08-20T01:37:03;4.95;;;4.43;;
29214;SDS011;16252;49.816;7.964;2023-08-20T01:39:28;6.25;;;4.70;;
29214;SDS011;16252;49.816;7.964;2023-08-20T01:41:53;7.57;;;4.97;;
29214;SDS011;16252;49.816;7.964;2023-08-20T01:44:19;8.52;;;5.30;;
29214;SDS011;16252;49.816;7.964;2023-08-20T01:46:44;8.15;;;4.85;;
29214;SDS011;16252;49.816;7.964;2023-08-20T01:49:09;7.93;;;4.57;;
29214;SDS011;16252;49.816;7.964;2023-08-20T01:51:35;7.13;;;5.03;;
29214;SDS011;16252;49.816;7.964;2023-08-20T01:54:01;6.32;;;5.32;;
29214;SDS011;16252;49.816;7.964;2023-08-20T01:56:27;5.13;;;4.63;;
29214;SDS011;16252;49.816;7.964;2023-08-20T01:58:52;5.90;;;4.38;;
29214;SDS011;16252;49.816;7.964;2023-08-20T02:01:18;5.20;;;4.70;;
29214;SDS011;16252;49.816;7.964;2023-08-20T02:03:43;7.95;;;4.88;;
29214;SDS011;16252;49.816;7.964;2023-08-20T02:06:08;5.68;;;5.07;;
29214;SDS011;16252;49.816;7.964;2023-08-20T02:08:34;5.43;;;4.78;;
29214;SDS011;16252;49.816;7.964;2023-08-20T02:11:02;7.30;;;5.07;;
29214;SDS011;16252;49.816;7.964;2023-08-20T02:13:29;6.78;;;5.20;;
29214;SDS011;16252;49.816;7.964;2023-08-20T02:16:01;6.07;;;4.25;;
29214;SDS011;16252;49.816;7.964;2023-08-20T02:18:28;5.68;;;4.60;;
29214;SDS011;16252;49.816;7.964;2023-08-20T02:20:53;5.65;;;4.43;;
29214;SDS011;16252;49.816;7.964;2023-08-20T02:23:19;5.88;;;4.55;;
29214;SDS011;16252;49.816;7.964;2023-08-20T02:25:44;5.70;;;4.68;;
29214;SDS011;16252;49.816;7.964;2023-08-20T02:28:09;7.30;;;5.20;;
29214;SDS011;16252;49.816;7.964;2023-08-20T02:30:41;6.38;;;4.68;;
29214;SDS011;16252;49.816;7.964;2023-08-20T02:33:08;5.95;;;4.57;;
29214;SDS011;16252;49.816;7.964;2023-08-20T02:35:33;6.60;;;4.82;;
29214;SDS011;16252;49.816;7.964;2023-08-20T02:37:58;7.57;;;5.10;;
29214;SDS011;16252;49.816;7.964;2023-08-20T02:40:24;6.05;;;5.00;;
29214;SDS011;16252;49.816;7.964;2023-08-20T02:42:49;5.45;;;4.80;;
29214;SDS011;16252;49.816;7.964;2023-08-20T02:45:14;6.15;;;4.60;;
29214;SDS011;16252;49.816;7.964;2023-08-20T02:47:40;6.38;;;5.30;;
29214;SDS011;16252;49.816;7.964;2023-08-20T02:50:05;7.47;;;4.82;;
29214;SDS011;16252;49.816;7.964;2023-08-20T02:52:30;4.72;;;4.25;;
29214;SDS011;16252;49.816;7.964;2023-08-20T02:54:56;6.63;;;4.43;;
29214;SDS011;16252;49.816;7.964;2023-08-20T02:57:21;6.75;;;4.40;;
29214;SDS011;16252;49.816;7.964;2023-08-20T02:59:46;5.53;;;4.80;;
29214;SDS011;16252;49.816;7.964;2023-08-20T03:02:12;5.53;;;4.70;;
29214;SDS011;16252;49.816;7.964;2023-08-20T03:04:37;4.70;;;4.20;;
29214;SDS011;16252;49.816;7.964;2023-08-20T03:07:02;6.30;;;4.32;;
29214;SDS011;16252;49.816;7.964;2023-08-20T03:09:28;5.88;;;4.10;;
29214;SDS011;16252;49.816;7.964;2023-08-20T03:11:53;5.72;;;3.97;;
29214;SDS011;16252;49.816;7.964;2023-08-20T03:14:18;5.35;;;4.28;;
29214;SDS011;16252;49.816;7.964;2023-08-20T03:16:44;5.85;;;4.72;;
29214;SDS011;16252;49.816;7.964;2023-08-20T03:19:09;5.05;;;4.45;;
29214;SDS011;16252;49.816;7.964;2023-08-20T03:21:34;5.22;;;4.65;;
29214;SDS011;16252;49.816;7.964;2023-08-20T03:23:59;4.88;;;4.38;;
29214;SDS011;16252;49.816;7.964;2023-08-20T03:26:25;5.03;;;4.47;;
29214;SDS011;16252;49.816;7.964;2023-08-20T03:28:50;5.03;;;4.47;;
29214;SDS011;16252;49.816;7.964;2023-08-20T03:31:15;4.72;;;4.13;;
29214;SDS011;16252;49.816;7.964;2023-08-20T03:33:41;5.40;;;4.40;;
29214;SDS011;16252;49.816;7.964;2023-08-20T03:36:06;4.38;;;3.97;;
29214;SDS011;16252;49.816;7.964;2023-08-20T03:38:31;5.03;;;4.53;;
29214;SDS011;16252;49.816;7.964;2023-08-20T03:40:56;4.85;;;4.35;;
29214;SDS011;16252;49.816;7.964;2023-08-20T03:43:22;4.78;;;4.28;;
29214;SDS011;16252;49.816;7.964;2023-08-20T03:45:51;4.93;;;3.97;;
29214;SDS011;16252;49.816;7.964;2023-08-20T03:48:17;4.60;;;4.03;;
29214;SDS011;16252;49.816;7.964;2023-08-20T03:50:42;5.78;;;4.63;;
29214;SDS011;16252;49.816;7.964;2023-08-20T03:53:07;5.30;;;4.57;;
29214;SDS011;16252;49.816;7.964;2023-08-20T03:55:32;9.57;;;5.28;;
29214;SDS011;16252;49.816;7.964;2023-08-20T03:57:58;6.57;;;4.60;;
29214;SDS011;16252;49.816;7.964;2023-08-20T04:00:23;6.80;;;4.90;;
29214;SDS011;16252;49.816;7.964;2023-08-20T04:02:48;5.63;;;4.78;;
29214;SDS011;16252;49.816;7.964;2023-08-20T04:05:14;8.45;;;5.88;;
29214;SDS011;16252;49.816;7.964;2023-08-20T04:07:39;8.57;;;6.13;;
29214;SDS011;16252;49.816;7.964;2023-08-20T04:10:04;7.55;;;5.82;;
29214;SDS011;16252;49.816;7.964;2023-08-20T04:12:30;7.07;;;5.63;;
29214;SDS011;16252;49.816;7.964;2023-08-20T04:14:55;6.57;;;5.32;;
29214;SDS011;16252;49.816;7.964;2023-08-20T04:17:20;5.90;;;5.00;;
29214;SDS011;16252;49.816;7.964;2023-08-20T04:19:46;5.18;;;4.68;;
29214;SDS011;16252;49.816;7.964;2023-08-20T04:22:11;5.50;;;4.90;;
29214;SDS011;16252;49.816;7.964;2023-08-20T04:24:36;5.65;;;5.00;;
29214;SDS011;16252;49.816;7.964;2023-08-20T04:27:02;8.30;;;5.30;;
29214;SDS011;16252;49.816;7.964;2023-08-20T04:29:27;6.18;;;5.07;;
29214;SDS011;16252;49.816;7.964;2023-08-20T04:31:52;6.60;;;5.20;;
29214;SDS011;16252;49.816;7.964;2023-08-20T04:34:18;8.20;;;5.00;;
29214;SDS011;16252;49.816;7.964;2023-08-20T04:36:43;5.68;;;4.93;;
29214;SDS011;16252;49.816;7.964;2023-08-20T04:39:08;7.25;;;4.82;;
29214;SDS011;16252;49.816;7.964;2023-08-20T04:41:34;4.75;;;4.35;;
29214;SDS011;16252;49.816;7.964;2023-08-20T04:43:59;5.60;;;4.50;;
29214;SDS011;16252;49.816;7.964;2023-08-20T04:46:24;6.05;;;4.47;;
29214;SDS011;16252;49.816;7.964;2023-08-20T04:48:49;5.10;;;4.60;;
29214;SDS011;16252;49.816;7.964;2023-08-20T04:51:15;5.53;;;4.25;;
29214;SDS011;16252;49.816;7.964;2023-08-20T04:53:42;5.95;;;4.90;;
29214;SDS011;16252;49.816;7.964;2023-08-20T04:56:08;5.68;;;4.43;;
29214;SDS011;16252;49.816;7.964;2023-08-20T04:58:33;5.15;;;4.65;;
29214;SDS011;16252;49.816;7.964;2023-08-20T05:00:58;5.55;;;4.57;;
29214;SDS011;16252;49.816;7.964;2023-08-20T05:03:24;8.13;;;4.15;;
29214;SDS011;16252;49.816;7.964;2023-08-20T05:05:50;4.85;;;4.43;;
29214;SDS011;16252;49.816;7.964;2023-08-20T05:08:16;5.25;;;4.68;;
29214;SDS011;16252;49.816;7.964;2023-08-20T05:10:44;7.40;;;4.32;;
29214;SDS011;16252;49.816;7.964;2023-08-20T05:13:10;5.60;;;4.82;;
29214;SDS011;16252;49.816;7.964;2023-08-20T05:15:35;4.55;;;4.03;;
29214;SDS011;16252;49.816;7.964;2023-08-20T05:18:00;4.80;;;4.32;;
29214;SDS011;16252;49.816;7.964;2023-08-20T05:20:26;5.05;;;4.55;;
29214;SDS011;16252;49.816;7.964;2023-08-20T05:22:51;5.40;;;4.38;;
29214;SDS011;16252;49.816;7.964;2023-08-20T05:25:16;5.03;;;4.53;;
29214;SDS011;16252;49.816;7.964;2023-08-20T05:27:42;5.40;;;4.43;;
29214;SDS011;16252;49.816;7.964;2023-08-20T05:30:07;5.20;;;4.03;;
29214;SDS011;16252;49.816;7.964;2023-08-20T05:32:33;5.90;;;4.47;;
29214;SDS011;16252;49.816;7.964;2023-08-20T05:34:59;4.63;;;4.15;;
29214;SDS011;16252;49.816;7.964;2023-08-20T05:37:24;6.55;;;4.35;;
29214;SDS011;16252;49.816;7.964;2023-08-20T05:39:49;5.15;;;4.55;;
29214;SDS011;16252;49.816;7.964;2023-08-20T05:42:15;4.82;;;4.35;;
29214;SDS011;16252;49.816;7.964;2023-08-20T05:44:40;7.13;;;4.88;;
29214;SDS011;16252;49.816;7.964;2023-08-20T05:47:05;5.57;;;4.32;;
29214;SDS011;16252;49.816;7.964;2023-08-20T05:49:30;6.03;;;4.78;;
29214;SDS011;16252;49.816;7.964;2023-08-20T05:51:56;6.60;;;4.50;;
29214;SDS011;16252;49.816;7.964;2023-08-20T05:54:21;6.93;;;4.63;;
29214;SDS011;16252;49.816;7.964;2023-08-20T05:56:46;4.47;;;4.07;;
29214;SDS011;16252;49.816;7.964;2023-08-20T05:59:12;5.40;;;4.30;;
29214;SDS011;16252;49.816;7.964;2023-08-20T06:01:37;4.78;;;4.32;;
29214;SDS011;16252;49.816;7.964;2023-08-20T06:04:02;5.07;;;4.57;;
29214;SDS011;16252;49.816;7.964;2023-08-20T06:06:28;5.82;;;4.97;;
29214;SDS011;16252;49.816;7.964;2023-08-20T06:08:53;6.18;;;5.03;;
29214;SDS011;16252;49.816;7.964;2023-08-20T06:11:19;5.07;;;4.57;;
29214;SDS011;16252;49.816;7.964;2023-08-20T06:13:44;6.10;;;4.50;;
29214;SDS011;16252;49.816;7.964;2023-08-20T06:16:10;5.63;;;5.03;;
29214;SDS011;16252;49.816;7.964;2023-08-20T06:18:35;5.45;;;4.82;;
29214;SDS011;16252;49.816;7.964;2023-08-20T06:21:01;5.78;;;4.97;;
29214;SDS011;16252;49.816;7.964;2023-08-20T06:23:27;7.13;;;4.13;;
29214;SDS011;16252;49.816;7.964;2023-08-20T06:25:52;5.70;;;5.05;;
29214;SDS011;16252;49.816;7.964;2023-08-20T06:28:17;6.90;;;4.72;;
29214;SDS011;16252;49.816;7.964;2023-08-20T06:30:44;5.60;;;5.05;;
29214;SDS011;16252;49.816;7.964;2023-08-20T06:33:09;6.45;;;5.40;;
29214;SDS011;16252;49.816;7.964;2023-08-20T06:35:35;5.07;;;4.57;;
29214;SDS011;16252;49.816;7.964;2023-08-20T06:38:00;6.47;;;4.85;;
29214;SDS011;16252;49.816;7.964;2023-08-20T06:40:25;6.75;;;5.35;;
29214;SDS011;16252;49.816;7.964;2023-08-20T06:42:51;5.53;;;5.03;;
29214;SDS011;16252;49.816;7.964;2023-08-20T06:45:16;5.03;;;4.60;;
29214;SDS011;16252;49.816;7.964;2023-08-20T06:47:41;6.00;;;5.25;;
29214;SDS011;16252;49.816;7.964;2023-08-20T06:50:06;5.80;;;5.03;;
29214;SDS011;16252;49.816;7.964;2023-08-20T06:52:32;5.53;;;4.93;;
29214;SDS011;16252;49.816;7.964;2023-08-20T06:54:57;5.93;;;4.95;;
29214;SDS011;16252;49.816;7.964;2023-08-20T06:57:22;5.55;;;4.60;;
29214;SDS011;16252;49.816;7.964;2023-08-20T06:59:48;5.20;;;4.70;;
29214;SDS011;16252;49.816;7.964;2023-08-20T07:02:14;4.82;;;4.35;;
29214;SDS011;16252;49.816;7.964;2023-08-20T07:04:39;4.93;;;4.43;;
29214;SDS011;16252;49.816;7.964;2023-08-20T07:07:05;5.30;;;4.32;;
29214;SDS011;16252;49.816;7.964;2023-08-20T07:09:30;4.80;;;4.35;;
29214;SDS011;16252;49.816;7.964;2023-08-20T07:11:55;4.55;;;3.92;;
29214;SDS011;16252;49.816;7.964;2023-08-20T07:14:21;5.05;;;4.35;;
29214;SDS011;16252;49.816;7.964;2023-08-20T07:16:46;5.45;;;4.47;;
29214;SDS011;16252;49.816;7.964;2023-08-20T07:19:11;5.43;;;4.50;;
29214;SDS011;16252;49.816;7.964;2023-08-20T07:21:36;5.30;;;4.45;;
29214;SDS011;16252;49.816;7.964;2023-08-20T07:24:02;5.30;;;4.50;;
29214;SDS011;16252;49.816;7.964;2023-08-20T07:26:27;5.00;;;4.47;;
29214;SDS011;16252;49.816;7.964;2023-08-20T07:28:52;4.78;;;4.18;;
29214;SDS011;16252;49.816;7.964;2023-08-20T07:31:21;4.75;;;4.05;;
29214;SDS011;16252;49.816;7.964;2023-08-20T07:33:57;5.35;;;4.55;;
29214;SDS011;16252;49.816;7.964;2023-08-20T07:36:24;4.97;;;4.47;;
29214;SDS011;16252;49.816;7.964;2023-08-20T07:38:51;5.00;;;4.28;;
29214;SDS011;16252;49.816;7.964;2023-08-20T07:41:17;4.20;;;3.80;;
29214;SDS011;16252;49.816;7.964;2023-08-20T07:43:44;4.78;;;4.28;;
29214;SDS011;16252;49.816;7.964;2023-08-20T07:46:10;4.50;;;4.10;;
29214;SDS011;16252;49.816;7.964;2023-08-20T07:48:35;4.68;;;3.92;;
29214;SDS011;16252;49.816;7.964;2023-08-20T07:51:01;4.50;;;4.10;;
29214;SDS011;16252;49.816;7.964;2023-08-20T07:53:27;4.57;;;4.13;;
29214;SDS011;16252;49.816;7.964;2023-08-20T07:55:53;4.45;;;4.05;;
29214;SDS011;16252;49.816;7.964;2023-08-20T07:58:18;4.93;;;4.10;;
29214;SDS011;16252;49.816;7.964;2023-08-20T08:00:43;4.72;;;4.05;;
29214;SDS011;16252;49.816;7.964;2023-08-20T08:03:09;4.38;;;3.90;;
29214;SDS011;16252;49.816;7.964;2023-08-20T08:05:37;6.03;;;4.53;;
29214;SDS011;16252;49.816;7.964;2023-08-20T08:08:02;4.65;;;4.22;;
29214;SDS011;16252;49.816;7.964;2023-08-20T08:10:30;5.00;;;4.50;;
29214;SDS011;16252;49.816;7.964;2023-08-20T08:12:55;5.20;;;4.70;;
29214;SDS011;16252;49.816;7.964;2023-08-20T08:15:21;6.13;;;4.50;;
29214;SDS011;16252;49.816;7.964;2023-08-20T08:17:47;4.53;;;3.90;;
29214;SDS011;16252;49.816;7.964;2023-08-20T08:20:12;6.43;;;4.60;;
29214;SDS011;16252;49.816;7.964;2023-08-20T08:22:37;5.65;;;4.60;;
29214;SDS011;16252;49.816;7.964;2023-08-20T08:25:03;7.45;;;4.43;;
29214;SDS011;16252;49.816;7.964;2023-08-20T08:27:28;5.68;;;4.13;;
29214;SDS011;16252;49.816;7.964;2023-08-20T08:29:54;5.45;;;4.57;;
29214;SDS011;16252;49.816;7.964;2023-08-20T08:32:19;4.57;;;3.90;;
29214;SDS011;16252;49.816;7.964;2023-08-20T08:34:44;4.45;;;3.97;;
29214;SDS011;16252;49.816;7.964;2023-08-20T08:37:09;6.40;;;4.35;;
29214;SDS011;16252;49.816;7.964;2023-08-20T08:39:35;4.63;;;3.80;;
29214;SDS011;16252;49.816;7.964;2023-08-20T08:42:02;4.80;;;3.92;;
29214;SDS011;16252;49.816;7.964;2023-08-20T08:44:30;4.60;;;4.13;;
29214;SDS011;16252;49.816;7.964;2023-08-20T08:46:57;5.18;;;4.13;;
29214;SDS011;16252;49.816;7.964;2023-08-20T08:49:23;6.28;;;4.18;;
29214;SDS011;16252;49.816;7.964;2023-08-20T08:51:48;4.22;;;3.33;;
29214;SDS011;16252;49.816;7.964;2023-08-20T08:54:15;3.58;;;2.90;;
29214;SDS011;16252;49.816;7.964;2023-08-20T08:56:41;4.22;;;3.00;;
29214;SDS011;16252;49.816;7.964;2023-08-20T08:59:07;2.90;;;2.67;;
29214;SDS011;16252;49.816;7.964;2023-08-20T09:01:36;3.65;;;3.35;;
29214;SDS011;16252;49.816;7.964;2023-08-20T09:04:05;4.88;;;3.03;;
29214;SDS011;16252;49.816;7.964;2023-08-20T09:06:50;3.17;;;2.85;;
29214;SDS011;16252;49.816;7.964;2023-08-20T09:09:17;3.20;;;2.90;;
29214;SDS011;16252;49.816;7.964;2023-08-20T09:11:43;2.97;;;2.70;;
29214;SDS011;16252;49.816;7.964;2023-08-20T09:14:27;2.88;;;2.67;;
29214;SDS011;16252;49.816;7.964;2023-08-20T09:17:03;3.00;;;2.75;;
29214;SDS011;16252;49.816;7.964;2023-08-20T09:19:28;3.65;;;2.80;;
29214;SDS011;16252;49.816;7.964;2023-08-20T09:22:00;4.25;;;3.28;;
29214;SDS011;16252;49.816;7.964;2023-08-20T09:24:31;3.45;;;3.10;;
29214;SDS011;16252;49.816;7.964;2023-08-20T09:27:07;7.13;;;2.90;;
29214;SDS011;16252;49.816;7.964;2023-08-20T09:29:33;4.78;;;3.25;;
29214;SDS011;16252;49.816;7.964;2023-08-20T09:32:09;3.33;;;3.03;;
29214;SDS011;16252;49.816;7.964;2023-08-20T09:34:39;3.35;;;3.05;;
29214;SDS011;16252;49.816;7.964;2023-08-20T09:37:07;3.47;;;3.15;;
29214;SDS011;16252;49.816;7.964;2023-08-20T09:39:35;3.50;;;3.15;;
29214;SDS011;16252;49.816;7.964;2023-08-20T09:42:01;3.67;;;3.30;;
29214;SDS011;16252;49.816;7.964;2023-08-20T09:44:28;3.88;;;3.00;;
29214;SDS011;16252;49.816;7.964;2023-08-20T09:46:59;3.55;;;3.17;;
29214;SDS011;16252;49.816;7.964;2023-08-20T09:49:25;3.35;;;3.05;;
29214;SDS011;16252;49.816;7.964;2023-08-20T09:51:55;3.47;;;3.17;;
29214;SDS011;16252;49.816;7.964;2023-08-20T09:54:32;3.42;;;3.03;;
29214;SDS011;16252;49.816;7.964;2023-08-20T09:57:05;3.83;;;3.53;;
29214;SDS011;16252;49.816;7.964;2023-08-20T09:59:35;3.55;;;3.03;;
29214;SDS011;16252;49.816;7.964;2023-08-20T10:02:02;3.88;;;3.47;;
29214;SDS011;16252;49.816;7.964;2023-08-20T10:04:28;4.22;;;3.42;;
29214;SDS011;16252;49.816;7.964;2023-08-20T10:06:54;3.22;;;2.92;;
29214;SDS011;16252;49.816;7.964;2023-08-20T10:09:21;4.10;;;3.70;;
29214;SDS011;16252;49.816;7.964;2023-08-20T10:11:47;7.18;;;3.63;;
29214;SDS011;16252;49.816;7.964;2023-08-20T10:14:13;4.00;;;3.60;;
29214;SDS011;16252;49.816;7.964;2023-08-20T10:16:38;4.22;;;3.47;;
29214;SDS011;16252;49.816;7.964;2023-08-20T10:19:05;3.88;;;3.47;;
29214;SDS011;16252;49.816;7.964;2023-08-20T10:21:31;3.40;;;3.10;;
29214;SDS011;16252;49.816;7.964;2023-08-20T10:23:56;4.22;;;3.78;;
29214;SDS011;16252;49.816;7.964;2023-08-20T10:26:22;4.07;;;3.08;;
29214;SDS011;16252;49.816;7.964;2023-08-20T10:28:49;3.90;;;3.50;;
29214;SDS011;16252;49.816;7.964;2023-08-20T10:31:16;3.65;;;3.35;;
29214;SDS011;16252;49.816;7.964;2023-08-20T10:33:54;3.55;;;3.22;;
29214;SDS011;16252;49.816;7.964;2023-08-20T10:36:21;4.63;;;3.45;;
29214;SDS011;16252;49.816;7.964;2023-08-20T10:38:51;3.42;;;2.65;;
29214;SDS011;16252;49.816;7.964;2023-08-20T10:41:24;3.30;;;2.90;;
29214;SDS011;16252;49.816;7.964;2023-08-20T10:43:53;3.42;;;3.13;;
29214;SDS011;16252;49.816;7.964;2023-08-20T10:46:22;3.58;;;2.83;;
29214;SDS011;16252;49.816;7.964;2023-08-20T10:56:37;3.63;;;3.10;;
29214;SDS011;16252;49.816;7.964;2023-08-20T10:59:07;3.20;;;2.90;;
29214;SDS011;16252;49.816;7.964;2023-08-20T11:01:52;3.63;;;3.33;;
29214;SDS011;16252;49.816;7.964;2023-08-20T11:04:20;3.63;;;3.30;;
29214;SDS011;16252;49.816;7.964;2023-08-20T11:06:46;3.90;;;3.10;;
29214;SDS011;16252;49.816;7.964;2023-08-20T11:09:17;3.80;;;3.00;;
29214;SDS011;16252;49.816;7.964;2023-08-20T11:11:43;3.15;;;2.78;;
29214;SDS011;16252;49.816;7.964;2023-08-20T11:14:12;3.23;;;2.93;;
29214;SDS011;16252;49.816;7.964;2023-08-20T11:16:39;3.30;;;3.00;;
29214;SDS011;16252;49.816;7.964;2023-08-20T11:19:04;2.85;;;2.60;;
29214;SDS011;16252;49.816;7.964;2023-08-20T11:21:33;3.80;;;2.88;;
29214;SDS011;16252;49.816;7.964;2023-08-20T11:24:09;2.72;;;2.35;;
29214;SDS011;16252;49.816;7.964;2023-08-20T11:26:35;3.13;;;2.85;;
29214;SDS011;16252;49.816;7.964;2023-08-20T11:29:10;2.83;;;2.63;;
29214;SDS011;16252;49.816;7.964;2023-08-20T11:31:42;3.15;;;2.63;;
29214;SDS011;16252;49.816;7.964;2023-08-20T11:34:07;3.30;;;2.67;;
29214;SDS011;16252;49.816;7.964;2023-08-20T11:36:35;4.53;;;2.67;;
29214;SDS011;16252;49.816;7.964;2023-08-20T11:39:02;3.42;;;2.65;;
29214;SDS011;16252;49.816;7.964;2023-08-20T11:41:28;3.40;;;2.80;;
29214;SDS011;16252;49.816;7.964;2023-08-20T11:43:53;3.33;;;2.70;;
29214;SDS011;16252;49.816;7.964;2023-08-20T11:46:22;3.10;;;2.80;;
29214;SDS011;16252;49.816;7.964;2023-08-20T11:49:10;3.00;;;2.70;;
29214;SDS011;16252;49.816;7.964;2023-08-20T11:51:40;2.67;;;2.47;;
29214;SDS011;16252;49.816;7.964;2023-08-20T11:54:13;5.22;;;2.78;;
29214;SDS011;16252;49.816;7.964;2023-08-20T11:56:46;3.58;;;2.60;;
29214;SDS011;16252;49.816;7.964;2023-08-20T11:59:12;3.63;;;3.03;;
29214;SDS011;16252;49.816;7.964;2023-08-20T12:01:39;3.88;;;3.00;;
29214;SDS011;16252;49.816;7.964;2023-08-20T12:04:04;4.82;;;3.00;;
29214;SDS011;16252;49.816;7.964;2023-08-20T12:06:31;2.90;;;2.63;;
29214;SDS011;16252;49.816;7.964;2023-08-20T12:08:57;3.20;;;2.90;;
29214;SDS011;16252;49.816;7.964;2023-08-20T12:11:24;2.90;;;2.60;;
29214;SDS011;16252;49.816;7.964;2023-08-20T12:13:53;2.78;;;2.58;;
29214;SDS011;16252;49.816;7.964;2023-08-20T12:16:21;2.83;;;2.45;;
29214;SDS011;16252;49.816;7.964;2023-08-20T12:18:47;3.83;;;2.53;;
29214;SDS011;16252;49.816;7.964;2023-08-20T12:21:12;3.03;;;2.72;;
29214;SDS011;16252;49.816;7.964;2023-08-20T12:23:37;4.30;;;2.70;;
29214;SDS011;16252;49.816;7.964;2023-08-20T12:26:03;2.42;;;2.22;;
29214;SDS011;16252;49.816;7.964;2023-08-20T12:28:28;3.65;;;2.65;;
29214;SDS011;16252;49.816;7.964;2023-08-20T12:30:54;3.38;;;2.58;;
29214;SDS011;16252;49.816;7.964;2023-08-20T12:33:19;2.95;;;2.08;;
29214;SDS011;16252;49.816;7.964;2023-08-20T12:35:45;2.85;;;2.28;;
29214;SDS011;16252;49.816;7.964;2023-08-20T12:38:11;2.67;;;2.47;;
29214;SDS011;16252;49.816;7.964;2023-08-20T12:40:36;6.20;;;2.55;;
29214;SDS011;16252;49.816;7.964;2023-08-20T12:43:01;2.28;;;1.85;;
29214;SDS011;16252;49.816;7.964;2023-08-20T12:45:27;3.28;;;2.00;;
29214;SDS011;16252;49.816;7.964;2023-08-20T12:47:53;4.05;;;2.03;;
29214;SDS011;16252;49.816;7.964;2023-08-20T12:50:18;3.55;;;2.40;;
29214;SDS011;16252;49.816;7.964;2023-08-20T12:52:44;2.58;;;2.30;;
29214;SDS011;16252;49.816;7.964;2023-08-20T12:55:09;3.35;;;2.22;;
29214;SDS011;16252;49.816;7.964;2023-08-20T12:57:35;2.75;;;2.45;;
29214;SDS011;16252;49.816;7.964;2023-08-20T13:00:01;3.60;;;2.45;;
29214;SDS011;16252;49.816;7.964;2023-08-20T13:02:36;2.65;;;2.20;;
29214;SDS011;16252;49.816;7.964;2023-08-20T13:05:02;2.67;;;2.20;;
29214;SDS011;16252;49.816;7.964;2023-08-20T13:07:27;2.45;;;2.25;;
29214;SDS011;16252;49.816;7.964;2023-08-20T13:09:53;5.05;;;2.30;;
29214;SDS011;16252;49.816;7.964;2023-08-20T13:12:18;2.60;;;2.40;;
29214;SDS011;16252;49.816;7.964;2023-08-20T13:14:51;2.65;;;2.45;;
29214;SDS011;16252;49.816;7.964;2023-08-20T13:17:17;2.53;;;2.22;;
29214;SDS011;16252;49.816;7.964;2023-08-20T13:19:42;2.50;;;2.20;;
29214;SDS011;16252;49.816;7.964;2023-08-20T13:22:08;4.18;;;2.05;;
29214;SDS011;16252;49.816;7.964;2023-08-20T13:24:33;2.83;;;2.20;;
29214;SDS011;16252;49.816;7.964;2023-08-20T13:26:59;2.95;;;2.50;;
29214;SDS011;16252;49.816;7.964;2023-08-20T13:29:24;2.67;;;2.13;;
29214;SDS011;16252;49.816;7.964;2023-08-20T13:31:49;3.05;;;2.10;;
29214;SDS011;16252;49.816;7.964;2023-08-20T13:34:15;3.15;;;2.63;;
29214;SDS011;16252;49.816;7.964;2023-08-20T13:36:40;4.45;;;2.90;;
29214;SDS011;16252;49.816;7.964;2023-08-20T13:39:05;2.55;;;2.28;;
29214;SDS011;16252;49.816;7.964;2023-08-20T13:41:31;3.20;;;2.25;;
29214;SDS011;16252;49.816;7.964;2023-08-20T13:43:56;2.65;;;2.45;;
29214;SDS011;16252;49.816;7.964;2023-08-20T13:46:21;2.72;;;2.15;;
29214;SDS011;16252;49.816;7.964;2023-08-20T13:48:46;2.53;;;2.25;;
29214;SDS011;16252;49.816;7.964;2023-08-20T13:51:12;2.80;;;2.20;;
29214;SDS011;16252;49.816;7.964;2023-08-20T13:53:37;2.65;;;2.40;;
29214;SDS011;16252;49.816;7.964;2023-08-20T13:56:02;3.15;;;2.78;;
29214;SDS011;16252;49.816;7.964;2023-08-20T13:58:27;2.30;;;2.10;;
29214;SDS011;16252;49.816;7.964;2023-08-20T14:00:53;3.17;;;2.35;;
29214;SDS011;16252;49.816;7.964;2023-08-20T14:03:18;2.38;;;2.17;;
29214;SDS011;16252;49.816;7.964;2023-08-20T14:05:43;2.88;;;2.30;;
29214;SDS011;16252;49.816;7.964;2023-08-20T14:08:10;2.47;;;2.22;;
29214;SDS011;16252;49.816;7.964;2023-08-20T14:10:36;2.85;;;2.22;;
29214;SDS011;16252;49.816;7.964;2023-08-20T14:13:01;2.92;;;2.60;;
29214;SDS011;16252;49.816;7.964;2023-08-20T14:15:26;2.47;;;2.13;;
29214;SDS011;16252;49.816;7.964;2023-08-20T14:17:51;3.00;;;2.35;;
29214;SDS011;16252;49.816;7.964;2023-08-20T14:20:17;2.63;;;2.40;;
29214;SDS011;16252;49.816;7.964;2023-08-20T14:22:42;4.35;;;2.90;;
29214;SDS011;16252;49.816;7.964;2023-08-20T14:25:07;3.17;;;2.35;;
29214;SDS011;16252;49.816;7.964;2023-08-20T14:27:33;3.17;;;2.55;;
29214;SDS011;16252;49.816;7.964;2023-08-20T14:29:58;2.35;;;2.15;;
29214;SDS011;16252;49.816;7.964;2023-08-20T14:32:23;2.47;;;2.22;;
29214;SDS011;16252;49.816;7.964;2023-08-20T14:34:49;2.45;;;2.13;;
29214;SDS011;16252;49.816;7.964;2023-08-20T14:37:14;2.97;;;2.30;;
29214;SDS011;16252;49.816;7.964;2023-08-20T14:39:39;2.40;;;2.17;;
29214;SDS011;16252;49.816;7.964;2023-08-20T14:42:05;2.40;;;2.20;;
29214;SDS011;16252;49.816;7.964;2023-08-20T14:44:30;3.70;;;2.38;;
29214;SDS011;16252;49.816;7.964;2023-08-20T14:46:55;4.20;;;2.75;;
29214;SDS011;16252;49.816;7.964;2023-08-20T14:49:21;2.40;;;2.17;;
29214;SDS011;16252;49.816;7.964;2023-08-20T14:51:46;3.08;;;2.50;;
29214;SDS011;16252;49.816;7.964;2023-08-20T14:54:12;3.35;;;2.65;;